• Join FlightAware (Why Join?)
  • Login
  • US Flag 
09:41PM EDT


 

Airport Tracker/Info


-or-


 

Live Flight TrackerFlight Track Log ✈ FSR411 ✈ 06-Nov-2013 ✈ KCMI - KROA

Flight Track Log - Related Links

Times and Time Zones

All times are in EST time to prevent confusion due to time zone crossing. See the FSR411 flight status page for this flight to view local times or setup timezone preferences in your user account.

Time Position Orientation Groundspeed Altitude Reporting Facility
EST Latitude Longitude Course Direction KTS MPH feet Rate Location/Type
09:50AM 39.9775 -88.2436 117° Southeast 270 311 41,000  Level Indianapolis Center
09:51AM 39.9628 -88.1700 105° East 306 352 5,900 -17,160 Descending Chicago Center
09:52AM 39.9275 -88.0564 112° Southeast 311 358 9,600 2,640 Climbing Chicago Center
09:53AM 39.8969 -87.9447 110° East 323 372 11,400 1,740 Climbing Chicago Center
09:54AM 39.8631 -87.8239 110° East 349 402 13,200 1,620 Climbing Chicago Center
09:55AM 39.8126 -87.4819 117° Southeast  Level Estimated
09:55AM 39.8275 -87.6961 110° East 370 426 14,800  Level Chicago Center
09:56AM 39.7828 -87.5378 110° East 387 445 16,700 1,680 Climbing Chicago Center
09:57AM 39.7450 -87.4042 110° East 394 453 18,300 2,040 Climbing Chicago Center
09:58AM 39.7047 -87.2667 111° Southeast 407 468 21,000 3,120 Climbing Chicago Center
09:59AM 39.6658 -87.1294 110° East 409 471 24,700 2,760 Climbing Chicago Center
10:00AM 39.6269 -86.9950 111° Southeast 401 461 26,800 1,620 Climbing Chicago Center
10:01AM 39.5764 -86.8200 110° East 435 501 28,100 1,080 Climbing Chicago Center
10:02AM 39.5289 -86.6608 111° Southeast 473 544 29,100 1,020 Climbing Chicago Center
10:03AM 39.4703 -86.4572 110° East 504 580 30,500 1,380 Climbing Indianapolis Center
10:05AM 39.4103 -86.2539 111° Southeast 514 592 32,300 1,620 Climbing Indianapolis Center
10:06AM 39.3592 -86.0847 111° Southeast 511 588 33,900 1,260 Climbing Indianapolis Center
10:07AM 39.3089 -85.9164 111° Southeast 509 586 35,000 480 Climbing Indianapolis Center
10:08AM 39.2561 -85.7406 111° Southeast 522 601 35,000  Level Indianapolis Center
10:09AM 39.2022 -85.5592 111° Southeast 537 618 35,000  Level Indianapolis Center
10:10AM 39.1361 -85.3444 112° Southeast 541 623 35,000  Level Indianapolis Center
10:11AM 39.0814 -85.1658 111° Southeast 541 623 35,000  Level Indianapolis Center
10:12AM 39.0258 -84.9878 112° Southeast 539 620 35,000  Level Indianapolis Center
10:13AM 38.9711 -84.8108 112° Southeast 540 621 35,000  Level Indianapolis Center
10:14AM 38.9064 -84.6039 112° Southeast 539 620 35,000  Level Indianapolis Center
10:15AM 38.8483 -84.4192 112° Southeast 543 625 35,000  Level Indianapolis Center
10:16AM 38.7917 -84.2414 112° Southeast 542 624 35,000 -180 Level Indianapolis Center
10:17AM 38.7347 -84.0642 112° Southeast 542 624 34,700 -660 Descending Indianapolis Center
10:18AM 38.6778 -83.8894 113° Southeast 537 618 33,700 -1,080 Descending Indianapolis Center
10:19AM 38.6119 -83.6822 112° Southeast 536 617 32,500 -1,080 Descending Indianapolis Center
10:20AM 38.5553 -83.5083 113° Southeast 531 611 31,500 -780 Descending Indianapolis Center
10:21AM 38.4983 -83.3339 113° Southeast 529 609 31,000 -300 Descending Indianapolis Center
10:22AM 38.4406 -83.1608 113° Southeast 529 609 31,000  Level Indianapolis Center
10:23AM 38.3836 -82.9886 113° Southeast 524 603 31,000  Level Indianapolis Center
10:24AM 38.3258 -82.8172 113° Southeast 525 604 31,000 -360 Level Indianapolis Center
10:25AM 38.2592 -82.6178 113° Southeast 523 602 30,300 -1,020 Descending Indianapolis Center
10:26AM 38.2069 -82.4642 113° Southeast 534 615 29,000 -1,320 Descending Indianapolis Center
10:27AM 38.1481 -82.2925 114° Southeast 534 615 27,600 -1,500 Descending Indianapolis Center
10:28AM 38.0800 -82.0933 113° Southeast 518 596 25,900 -1,500 Descending Indianapolis Center
10:29AM 38.0239 -81.9294 113° Southeast 509 586 24,500 -1,440 Descending Indianapolis Center
10:30AM 37.9681 -81.7689 114° Southeast 500 575 23,000 -1,500 Descending Indianapolis Center
10:31AM 37.9142 -81.6169 114° Southeast 481 554 21,500 -1,500 Descending Indianapolis Center
10:32AM 37.8631 -81.4708 114° Southeast 459 528 20,000 -1,560 Descending Indianapolis Center
10:33AM 37.8100 -81.3189 114° Southeast 447 514 18,400 -1,320 Descending Indianapolis Center
10:34AM 37.7614 -81.1833 114° Southeast 435 501 17,300 -1,380 Descending Indianapolis Center
10:36AM 37.7058 -81.0269 114° Southeast 421 484 15,600 -1,560 Descending Indianapolis Center
10:37AM 37.6614 -80.9019 114° Southeast 407 468 14,100 -1,380 Descending Indianapolis Center
10:38AM 37.6183 -80.7822 114° Southeast 389 448 12,800 -1,260 Descending Indianapolis Center
10:39AM 37.5689 -80.6458 115° Southeast 369 425 11,500 -780 Descending Indianapolis Center
10:40AM 37.5214 -80.5172 115° Southeast 366 421 11,000 -360 Descending Washington Center
10:41AM 37.4842 -80.4103 114° Southeast 352 405 10,800 -840 Descending Washington Center
10:42AM 37.4481 -80.3189 116° Southeast 317 365 9,400 -1,500 Descending Washington Center
10:43AM 37.4161 -80.2281 114° Southeast 296 341 7,900 -1,680 Descending Washington Center
10:44AM 37.3672 -80.1442 126° Southeast 284 327 6,100 -960 Descending Washington Center
10:45AM 37.3106 -80.0964 146° Southeast 261 300 6,000 -1,020 Descending Washington Center
10:46AM 37.2581 -80.0489 144° Southeast 248 285 4,100 -1,020 Descending Washington Center
10:47AM 37.2292 -79.9897 122° Southeast 209 241 4,100 -360 Level Washington Center
10:48AM 37.2558 -79.9392 56° Northeast 170 196 3,400 -1,080 Descending Washington Center
10:49AM 37.2889 -79.9514 344° North 95 109 2,000 -1,440 Descending Washington Center